SVFM weather

Francisco de Miranda Airport
La Carlota, Miranda, Venezuela

Public forecast

Using degrees Celsius for public forecast. Weather courtesy of forecast.io.

METAR (pilot weather report)

Report is more than 6 hours old.

Retrieved 2018/08/20 13:00 UTC (1 year ago):

SVFM 201300Z 05003KT 9999 FEW016 29/24 Q1014

TAF (pilot weather forecast)

Forecast is more than 12 hours old.

Closest forecast is Simón Bolívar International Airport, 11.2 nm (20.7 km) NW. Retrieved 2019/09/15 00:04 UTC (1 day ago):

TAF SVMI 152200Z 1600/1700 21002KT 9999 SCT016 TX32/18Z TN24/07Z BECMG 1600/1604 270032KT 9999 BKN016